Venango Regional Airport Franklin US
ICAO: KFKL
IATA: FKL
Category: Medium
Scheduled Services: No

Elevation: 1540 ft
TransAlt. 18000 ft.

Airport Communications:
YOUNGSTOWN APP/DEP:133.95
AWOS 3:118.175
CLNC DEL:126.25
ALTOONA RDO:109.6
CTAF/UNICOM:122.7

KFKL Zoom In..

If you have problems with the map follow the link
https://www.worldairports.se/pages/airport.php?
ICAO=KFKL

Runways:

(A) RW 03 length 5200 ft width 150 ft
---- / hdg 27

(B) RW 12 length 3593 ft width 100 ft
---- / hdg 116

(C) RW 21 length 5200 ft width 150 ft
ILS 110.50 / hdg 207

(D) RW 30 length 3593 ft width 100 ft
---- / hdg 296

Location; KFKL
Day. 20 / Time. 20.56 Zulu
* Altimeter: 29.96
* Temperature: -01° c. -30.2°f.
* Wind from: 130° Speed 16 kn with Gusts up to 21 kn.
Dewpoint: -02° c.
Visibility: 8 Statute Miles.
Clouds: Overcast 500 ft.

KFKL 202056Z AUTO 13016G21KT 8SM OVC005 M01/M02 A2996 RMK AO2 UPE56SNB30E39B44E53 SLP166 P0000 60001 T10111017 56046 FZRANO


Wind From 130°
Speed 16 kn.

 
 
jpsmedia.com for Web Design worldairports.se 2019   terms of use